createdAt,value
2018-08-03T00:00:24.844Z,59.95
2018-08-03T00:01:24.562Z,60.24
2018-08-03T00:02:26.362Z,60.04
2018-08-03T00:03:27.135Z,60.12
2018-08-03T00:04:27.917Z,60.03
2018-08-03T00:05:28.683Z,60.31
2018-08-03T00:06:29.465Z,60.54
2018-08-03T00:07:30.263Z,60.36
2018-08-03T00:08:31.035Z,60.37
2018-08-03T00:09:32.806Z,60.94
2018-08-03T00:10:32.581Z,61.29
2018-08-03T00:11:33.720Z,61.30
2018-08-03T00:13:24.659Z,60.58
2018-08-03T00:14:25.442Z,60.58
2018-08-03T00:15:26.201Z,60.48
2018-08-03T00:16:26.975Z,60.97
2018-08-03T00:17:27.765Z,60.89
2018-08-03T00:18:28.541Z,60.95
2018-08-03T00:19:29.309Z,60.61
2018-08-03T00:20:30.094Z,60.30
2018-08-03T00:21:30.855Z,60.57
2018-08-03T00:22:31.652Z,60.73
2018-08-03T00:23:32.424Z,60.90
2018-08-03T00:24:33.194Z,60.66
2018-08-03T00:25:33.973Z,60.90
2018-08-03T00:26:34.746Z,61.03
2018-08-03T00:27:36.269Z,61.01
2018-08-03T00:28:36.040Z,60.59
2018-08-03T00:29:36.813Z,60.90
2018-08-03T00:30:37.591Z,60.83
2018-08-03T00:31:38.363Z,60.62
2018-08-03T00:32:39.169Z,60.83
2018-08-03T00:33:39.938Z,61.21
2018-08-03T00:34:40.717Z,61.53
2018-08-03T00:35:41.492Z,61.71
2018-08-03T00:36:42.275Z,61.76
2018-08-03T00:37:43.069Z,61.72
2018-08-03T00:38:43.840Z,61.72
2018-08-03T00:39:44.616Z,61.48
2018-08-03T00:40:45.390Z,62.02
2018-08-03T00:41:46.165Z,62.10
2018-08-03T00:42:46.965Z,61.84
2018-08-03T00:43:47.743Z,61.86
2018-08-03T00:44:48.511Z,62.19
2018-08-03T00:45:49.291Z,62.04
2018-08-03T00:46:50.067Z,62.02
2018-08-03T00:47:50.872Z,62.03
2018-08-03T00:48:51.640Z,61.99
2018-08-03T00:49:52.411Z,61.93
2018-08-03T00:50:53.191Z,61.56
2018-08-03T00:51:53.963Z,61.75
2018-08-03T00:52:54.769Z,62.04
2018-08-03T00:53:55.536Z,62.44
2018-08-03T00:54:56.317Z,62.29
2018-08-03T00:55:57.087Z,62.03
2018-08-03T00:56:57.867Z,62.46
2018-08-03T00:57:58.667Z,62.52
2018-08-03T00:58:59.438Z,62.71
2018-08-03T01:00:00.208Z,62.66
2018-08-03T01:01:00.985Z,63.09
2018-08-03T01:02:01.750Z,62.96
2018-08-03T01:03:02.547Z,62.79
2018-08-03T01:04:03.319Z,62.89
2018-08-03T01:05:04.091Z,63.14
2018-08-03T01:06:04.867Z,62.78
2018-08-03T01:07:05.639Z,62.80
2018-08-03T01:08:06.443Z,63.26
2018-08-03T01:09:07.213Z,63.23
2018-08-03T01:10:07.990Z,63.45
2018-08-03T01:11:08.763Z,63.04
2018-08-03T01:12:09.534Z,63.29
2018-08-03T01:13:10.335Z,63.50
2018-08-03T01:14:11.109Z,63.56
2018-08-03T01:15:11.881Z,63.45
2018-08-03T01:16:12.649Z,63.23
2018-08-03T01:17:13.426Z,63.72
2018-08-03T01:18:14.224Z,63.43
2018-08-03T01:19:14.990Z,63.26
2018-08-03T01:20:15.762Z,63.56
2018-08-03T01:21:16.541Z,63.40
2018-08-03T01:22:17.318Z,63.49
2018-08-03T01:23:18.115Z,63.29
2018-08-03T01:24:18.889Z,63.43
2018-08-03T01:25:19.664Z,63.74
2018-08-03T01:26:20.440Z,63.59
2018-08-03T01:27:21.214Z,63.90
2018-08-03T01:28:22.021Z,63.68
2018-08-03T01:29:22.787Z,63.54
2018-08-03T01:30:23.565Z,63.48
2018-08-03T01:31:24.338Z,63.32
2018-08-03T01:32:25.114Z,63.15
2018-08-03T01:33:25.916Z,63.51
2018-08-03T01:34:26.689Z,63.67
2018-08-03T01:35:27.479Z,63.45
2018-08-03T01:36:28.248Z,63.17
2018-08-03T01:37:29.025Z,63.13
2018-08-03T01:38:29.819Z,63.40
2018-08-03T01:39:30.590Z,63.43
2018-08-03T01:40:31.364Z,63.84
2018-08-03T01:41:32.142Z,64.16
2018-08-03T01:42:32.911Z,64.11
2018-08-03T01:43:33.714Z,63.81
2018-08-03T01:44:34.486Z,63.70
2018-08-03T01:45:35.272Z,64.14
2018-08-03T01:46:36.044Z,64.04
2018-08-03T01:47:36.814Z,64.26
2018-08-03T01:48:37.617Z,64.57
2018-08-03T01:49:38.389Z,64.53
2018-08-03T01:50:39.167Z,64.65
2018-08-03T01:51:39.937Z,64.60
2018-08-03T01:52:40.717Z,64.54
2018-08-03T01:53:41.516Z,64.66
2018-08-03T01:54:42.292Z,64.58
2018-08-03T01:55:43.063Z,64.49
2018-08-03T01:56:43.844Z,64.83
2018-08-03T01:57:44.619Z,64.76
2018-08-03T01:58:45.414Z,64.76
2018-08-03T01:59:46.587Z,64.99
2018-08-03T02:04:49.866Z,65.20
2018-08-03T02:05:50.637Z,65.22
2018-08-03T02:06:50.409Z,65.16
2018-08-03T02:07:52.186Z,64.96
2018-08-03T02:08:52.957Z,65.01
2018-08-03T02:09:53.764Z,64.89
2018-08-03T02:10:54.535Z,64.84
2018-08-03T02:11:55.309Z,65.03
2018-08-03T02:12:56.085Z,65.20
2018-08-03T02:13:56.864Z,65.59
2018-08-03T02:14:57.666Z,65.08
2018-08-03T02:15:58.440Z,65.04
2018-08-03T02:16:59.210Z,64.80
2018-08-03T02:17:59.981Z,64.63
2018-08-03T02:19:00.761Z,65.21
2018-08-03T02:20:01.561Z,65.08
2018-08-03T02:21:02.335Z,65.21
2018-08-03T02:22:03.107Z,64.88
2018-08-03T02:23:03.888Z,64.92
2018-08-03T02:24:04.665Z,64.58
2018-08-03T02:25:05.457Z,64.61
2018-08-03T02:26:06.229Z,64.93
2018-08-03T02:27:07.005Z,65.34
2018-08-03T02:28:07.773Z,65.67
2018-08-03T02:29:08.557Z,66.09
2018-08-03T02:30:09.344Z,66.05
2018-08-03T02:31:10.117Z,65.73
2018-08-03T02:32:10.889Z,65.73
2018-08-03T02:33:11.666Z,65.94
2018-08-03T02:34:12.438Z,66.05
2018-08-03T02:35:13.240Z,65.78
2018-08-03T02:36:14.013Z,65.82
2018-08-03T02:37:14.786Z,66.35
2018-08-03T02:38:15.559Z,66.28
2018-08-03T02:39:16.332Z,66.06
2018-08-03T02:40:17.135Z,65.98
2018-08-03T02:41:17.915Z,65.79
2018-08-03T02:42:18.693Z,65.62
2018-08-03T02:43:19.464Z,65.57
2018-08-03T02:44:20.240Z,65.72
2018-08-03T02:45:21.042Z,65.56
2018-08-03T02:46:21.814Z,65.64
2018-08-03T02:47:22.591Z,65.37
2018-08-03T02:48:23.362Z,65.18
2018-08-03T02:49:24.137Z,65.38
2018-08-03T02:50:24.937Z,65.92
2018-08-03T02:51:25.710Z,66.25
2018-08-03T02:52:26.486Z,66.06
2018-08-03T02:53:27.257Z,66.39
2018-08-03T02:54:28.037Z,66.73
2018-08-03T02:55:28.832Z,66.69
2018-08-03T02:56:29.605Z,66.97
2018-08-03T02:57:30.378Z,67.03
2018-08-03T02:58:31.152Z,67.05
2018-08-03T02:59:31.926Z,67.05
2018-08-03T03:00:32.723Z,67.42
2018-08-03T03:01:33.492Z,67.67
2018-08-03T03:02:34.267Z,67.66
2018-08-03T03:03:35.037Z,67.65
2018-08-03T03:04:35.809Z,67.67
2018-08-03T03:05:36.611Z,67.60
2018-08-03T03:06:37.387Z,67.28
2018-08-03T03:07:38.160Z,66.76
2018-08-03T03:08:38.935Z,66.78
2018-08-03T03:09:39.710Z,66.67
2018-08-03T03:10:40.507Z,66.26
2018-08-03T03:11:41.279Z,66.47
2018-08-03T03:12:42.053Z,66.95
2018-08-03T03:13:42.825Z,66.75
2018-08-03T03:14:43.603Z,66.77
2018-08-03T03:15:44.405Z,67.12
2018-08-03T03:16:45.168Z,66.82
2018-08-03T03:17:45.943Z,67.25
2018-08-03T03:18:46.715Z,66.84
2018-08-03T03:19:47.498Z,66.54
2018-08-03T03:20:47.287Z,66.50
2018-08-03T03:21:49.069Z,67.14
2018-08-03T03:22:49.839Z,66.88
2018-08-03T03:23:50.611Z,67.25
2018-08-03T03:24:51.390Z,67.30
2018-08-03T03:25:52.187Z,67.03
2018-08-03T03:26:52.960Z,66.64
2018-08-03T03:27:53.731Z,67.20
2018-08-03T03:28:54.506Z,67.12
2018-08-03T03:29:55.286Z,67.60
2018-08-03T03:30:56.083Z,67.10
2018-08-03T03:31:57.852Z,67.09
2018-08-03T03:32:57.629Z,67.25
2018-08-03T03:33:58.396Z,67.06
2018-08-03T03:34:59.201Z,66.98
2018-08-03T03:35:59.971Z,66.50
2018-08-03T03:36:59.740Z,66.50
2018-08-03T03:38:01.520Z,66.68
2018-08-03T03:39:02.286Z,66.27
2018-08-03T03:40:03.091Z,66.68
2018-08-03T03:41:03.865Z,67.08
2018-08-03T03:42:04.638Z,67.28
2018-08-03T03:43:05.411Z,66.97
2018-08-03T03:44:06.185Z,67.47
2018-08-03T03:45:06.989Z,67.43
2018-08-03T03:46:07.759Z,67.94
2018-08-03T03:47:08.540Z,67.78
2018-08-03T03:48:09.309Z,68.22
2018-08-03T03:49:10.087Z,68.02
2018-08-03T03:50:10.884Z,68.27
2018-08-03T03:51:11.660Z,68.72
2018-08-03T03:52:12.435Z,68.53
2018-08-03T03:53:13.231Z,68.74
2018-08-03T03:54:14.393Z,68.82
2018-08-03T03:55:14.605Z,68.71
2018-08-03T03:56:13.804Z,68.13
2018-08-03T04:01:11.472Z,67.89
2018-08-03T04:02:12.245Z,67.96
2018-08-03T04:03:13.015Z,68.06
2018-08-03T04:04:13.786Z,67.93
2018-08-03T04:05:14.571Z,68.00
2018-08-03T04:06:15.353Z,67.82
2018-08-03T04:07:16.123Z,67.91
2018-08-03T04:08:16.903Z,67.82
2018-08-03T04:09:17.671Z,67.91
2018-08-03T04:10:18.450Z,68.55
2018-08-03T04:11:20.244Z,68.40
2018-08-03T04:12:19.074Z,68.54
2018-08-03T04:13:19.791Z,67.92
2018-08-03T04:14:21.572Z,68.34
2018-08-03T04:15:22.343Z,68.14
2018-08-03T04:16:23.139Z,67.89
2018-08-03T04:17:23.910Z,68.28
2018-08-03T04:18:24.677Z,68.61
2018-08-03T04:19:25.449Z,69.40
2018-08-03T04:20:26.223Z,69.47
2018-08-03T04:21:27.027Z,69.35
2018-08-03T04:22:27.798Z,69.12
2018-08-03T04:23:28.572Z,69.28
2018-08-03T04:24:29.346Z,69.15
2018-08-03T04:25:30.153Z,69.43
2018-08-03T04:26:30.927Z,69.30
2018-08-03T04:27:31.701Z,69.24
2018-08-03T04:28:32.476Z,69.24
2018-08-03T04:29:33.245Z,69.49
2018-08-03T04:30:35.015Z,69.39
2018-08-03T04:31:34.814Z,69.36
2018-08-03T04:32:35.581Z,69.16
2018-08-03T04:33:36.356Z,69.19
2018-08-03T04:34:37.129Z,69.06
2018-08-03T04:35:37.901Z,68.97
2018-08-03T04:36:38.700Z,69.26
2018-08-03T04:37:39.473Z,69.86
2018-08-03T04:38:40.250Z,69.76
2018-08-03T04:39:41.020Z,70.07
2018-08-03T04:40:41.802Z,70.22
2018-08-03T04:41:42.599Z,70.56
2018-08-03T04:42:43.378Z,70.19
2018-08-03T04:43:44.149Z,70.34
2018-08-03T04:44:44.924Z,70.11
2018-08-03T04:45:45.702Z,70.28
2018-08-03T04:46:46.495Z,70.29
2018-08-03T04:47:47.280Z,70.28
2018-08-03T04:48:48.050Z,70.24
2018-08-03T04:49:48.834Z,70.09
2018-08-03T04:50:49.595Z,69.66
2018-08-03T04:51:50.500Z,70.03
2018-08-03T04:52:50.183Z,69.29
2018-08-03T04:53:51.957Z,69.66
2018-08-03T04:54:52.731Z,69.10
2018-08-03T04:55:53.502Z,69.49
2018-08-03T04:56:54.298Z,69.29
2018-08-03T04:57:55.070Z,68.79
2018-08-03T04:58:55.843Z,68.92
2018-08-03T04:59:56.617Z,68.89
2018-08-03T05:00:57.390Z,68.31
2018-08-03T05:01:58.195Z,68.96
2018-08-03T05:02:58.970Z,68.46
2018-08-03T05:03:59.739Z,68.15
2018-08-03T05:05:00.519Z,68.01
2018-08-03T05:06:01.283Z,67.58
2018-08-03T05:07:02.096Z,67.40
2018-08-03T05:08:02.857Z,66.88
2018-08-03T05:09:03.640Z,65.78
2018-08-03T05:10:04.400Z,64.46
2018-08-03T05:11:05.180Z,63.48
2018-08-03T05:12:05.979Z,62.59
2018-08-03T05:13:06.748Z,61.51
2018-08-03T05:14:07.527Z,60.12
2018-08-03T05:15:08.305Z,60.61
2018-08-03T05:16:09.094Z,59.48
2018-08-03T05:17:09.908Z,59.04
2018-08-03T05:18:10.680Z,58.41
2018-08-03T05:19:11.454Z,57.04
2018-08-03T05:20:12.229Z,55.20
2018-08-03T05:21:13.004Z,54.42
2018-08-03T05:22:13.806Z,53.03
2018-08-03T05:23:14.580Z,52.26
2018-08-03T05:24:14.380Z,51.87
2018-08-03T05:25:16.123Z,52.15
2018-08-03T05:26:16.900Z,52.08
2018-08-03T05:27:17.698Z,50.99
2018-08-03T05:28:18.483Z,50.76
2018-08-03T05:29:19.249Z,50.85
2018-08-03T05:30:20.054Z,50.14
2018-08-03T05:31:19.812Z,49.22
2018-08-03T05:32:21.602Z,49.00
2018-08-03T05:33:22.379Z,48.58
2018-08-03T05:34:23.154Z,47.90
2018-08-03T05:35:23.951Z,47.44
2018-08-03T05:36:23.732Z,47.62
2018-08-03T05:37:24.507Z,46.99
2018-08-03T05:38:26.278Z,46.53
2018-08-03T05:39:27.060Z,46.67
2018-08-03T05:40:27.832Z,46.12
2018-08-03T05:41:28.603Z,45.53
2018-08-03T05:42:29.442Z,45.50
2018-08-03T05:43:29.177Z,44.32
2018-08-03T05:44:30.960Z,44.61
2018-08-03T05:45:31.745Z,43.54
2018-08-03T05:46:31.499Z,43.37
2018-08-03T05:47:33.352Z,42.91
2018-08-03T05:48:33.083Z,42.11
2018-08-03T05:49:33.846Z,41.38
2018-08-03T05:50:40.380Z,41.06
2018-08-03T05:51:37.178Z,40.77
2018-08-03T05:52:36.956Z,39.94
2018-08-03T05:53:37.729Z,39.16
2018-08-03T05:54:38.505Z,39.25
2018-08-03T05:55:39.275Z,38.08
2018-08-03T05:56:40.047Z,38.53
2018-08-03T05:57:39.848Z,38.20
2018-08-03T05:58:41.990Z,37.34
2018-08-03T06:03:28.798Z,35.07
2018-08-03T06:04:29.569Z,34.87
2018-08-03T06:05:30.338Z,35.13
2018-08-03T06:06:31.116Z,34.66
2018-08-03T06:07:31.885Z,34.97
2018-08-03T06:08:32.687Z,35.23
2018-08-03T06:09:33.476Z,35.05
2018-08-03T06:10:33.227Z,35.39
2018-08-03T06:11:34.996Z,36.11
2018-08-03T06:12:41.771Z,35.93
2018-08-03T06:13:36.565Z,35.49
2018-08-03T06:14:37.351Z,35.55
2018-08-03T06:15:38.110Z,35.06
2018-08-03T06:16:38.885Z,35.54
2018-08-03T06:17:39.657Z,35.23
2018-08-03T06:18:40.452Z,34.08
2018-08-03T06:19:42.219Z,33.70
2018-08-03T06:20:42.134Z,34.15
2018-08-03T06:21:41.774Z,33.97
2018-08-03T06:22:43.546Z,33.59
2018-08-03T06:23:44.354Z,33.48
2018-08-03T06:24:45.129Z,33.57
2018-08-03T06:25:45.904Z,32.56
2018-08-03T06:26:46.677Z,32.00
2018-08-03T06:27:47.448Z,32.06
2018-08-03T06:28:48.251Z,32.28
2018-08-03T06:29:49.177Z,32.26
2018-08-03T06:30:48.788Z,32.27
2018-08-03T06:31:50.563Z,31.82
2018-08-03T06:32:51.337Z,30.85
2018-08-03T06:33:52.129Z,31.04
2018-08-03T06:34:52.904Z,30.64
2018-08-03T06:35:53.675Z,30.20
2018-08-03T06:36:53.458Z,30.38
2018-08-03T06:37:55.230Z,31.10
2018-08-03T06:38:56.028Z,31.27
2018-08-03T06:39:56.800Z,31.23
2018-08-03T06:40:57.580Z,30.65
2018-08-03T06:41:58.360Z,30.36
2018-08-03T06:42:59.133Z,30.27
2018-08-03T06:43:59.933Z,30.30
2018-08-03T06:45:00.711Z,29.49
2018-08-03T06:46:01.477Z,28.36
2018-08-03T06:47:02.255Z,28.09
2018-08-03T06:48:03.028Z,28.06
2018-08-03T06:49:03.826Z,28.38
2018-08-03T06:50:04.602Z,28.08
2018-08-03T06:51:05.368Z,28.28
2018-08-03T06:52:06.140Z,27.89
2018-08-03T06:53:06.912Z,29.65
2018-08-03T06:54:07.710Z,29.47
2018-08-03T06:55:08.483Z,29.08
2018-08-03T06:56:09.256Z,28.32
2018-08-03T06:57:10.031Z,28.08
2018-08-03T06:58:10.802Z,27.71
2018-08-03T06:59:11.604Z,27.33
2018-08-03T07:00:12.377Z,27.34
2018-08-03T07:01:13.156Z,27.43
2018-08-03T07:02:13.930Z,27.69
2018-08-03T07:03:14.706Z,27.99
2018-08-03T07:04:15.513Z,28.01
2018-08-03T07:05:16.281Z,28.47
2018-08-03T07:06:17.058Z,28.71
2018-08-03T07:07:17.829Z,27.97
2018-08-03T07:08:18.601Z,28.15
2018-08-03T07:09:19.405Z,28.18
2018-08-03T07:10:20.180Z,27.53
2018-08-03T07:11:20.951Z,27.44
2018-08-03T07:12:21.731Z,27.20
2018-08-03T07:13:22.502Z,27.43
2018-08-03T07:14:23.304Z,28.04
2018-08-03T07:15:24.223Z,27.44
2018-08-03T07:16:24.181Z,27.73
2018-08-03T07:17:25.095Z,27.62
2018-08-03T07:18:26.008Z,27.57
2018-08-03T07:19:27.145Z,27.20
2018-08-03T07:20:27.158Z,27.40
2018-08-03T07:21:28.025Z,28.31
2018-08-03T07:22:28.969Z,27.69
2018-08-03T07:23:29.924Z,28.27
2018-08-03T07:24:31.003Z,28.04
2018-08-03T07:25:30.951Z,27.81
2018-08-03T07:26:31.904Z,27.84
2018-08-03T07:27:32.836Z,27.77
2018-08-03T07:28:33.784Z,27.88
2018-08-03T07:29:35.731Z,27.80
2018-08-03T07:30:35.574Z,28.01
2018-08-03T07:31:36.500Z,29.03
2018-08-03T07:32:37.421Z,29.30
2018-08-03T07:33:38.378Z,29.14
2018-08-03T07:34:39.436Z,28.89
2018-08-03T07:35:39.389Z,28.93
2018-08-03T07:36:40.314Z,28.79
2018-08-03T07:37:41.198Z,29.03
2018-08-03T07:38:42.099Z,29.02
2018-08-03T07:39:43.237Z,29.67
2018-08-03T07:40:43.165Z,29.27
2018-08-03T07:41:44.099Z,29.98
2018-08-03T07:42:45.031Z,30.63
2018-08-03T07:43:45.972Z,30.62
2018-08-03T07:44:46.695Z,30.20
2018-08-03T07:45:48.465Z,30.68
2018-08-03T07:46:49.245Z,30.17
2018-08-03T07:47:50.264Z,30.36
2018-08-03T07:48:50.167Z,30.65
2018-08-03T07:49:51.257Z,30.62
2018-08-03T07:50:51.211Z,30.90
2018-08-03T07:51:52.139Z,31.02
2018-08-03T07:52:53.076Z,31.90
2018-08-03T07:53:53.976Z,31.50
2018-08-03T07:54:55.041Z,31.57
2018-08-03T07:55:54.920Z,32.15
2018-08-03T07:56:55.873Z,32.15
2018-08-03T07:57:56.803Z,32.49
2018-08-03T07:58:57.726Z,32.76
2018-08-03T07:59:58.762Z,33.36
2018-08-03T08:00:58.706Z,33.44
2018-08-03T08:01:59.662Z,33.54
2018-08-03T08:03:00.587Z,33.98
2018-08-03T08:04:01.536Z,34.59
2018-08-03T08:05:02.667Z,35.16
2018-08-03T08:06:02.569Z,36.23
2018-08-03T08:07:03.519Z,36.09
2018-08-03T08:08:04.412Z,36.59
2018-08-03T08:09:05.296Z,37.30
2018-08-03T08:10:06.435Z,37.87
2018-08-03T08:11:06.369Z,37.42
2018-08-03T08:12:07.244Z,37.23
2018-08-03T08:13:08.141Z,37.73
2018-08-03T08:14:09.075Z,38.24
2018-08-03T08:15:10.240Z,38.13
2018-08-03T08:16:10.093Z,38.23
2018-08-03T08:17:11.003Z,38.96
2018-08-03T08:18:11.922Z,39.05
2018-08-03T08:19:12.861Z,38.72
2018-08-03T08:20:14.933Z,38.31
2018-08-03T08:21:13.866Z,39.10
2018-08-03T08:22:14.760Z,39.64
2018-08-03T08:23:16.668Z,39.90
2018-08-03T08:24:16.640Z,40.18
2018-08-03T08:25:17.638Z,38.92
2018-08-03T08:26:18.522Z,39.60
2018-08-03T08:27:19.429Z,39.90
2018-08-03T08:28:20.330Z,39.98
2018-08-03T08:29:21.285Z,39.45
2018-08-03T08:30:22.317Z,39.81
2018-08-03T08:31:22.302Z,40.04
2018-08-03T08:32:23.145Z,40.27
2018-08-03T08:33:23.838Z,40.07
2018-08-03T08:34:25.770Z,40.16
2018-08-03T08:35:25.505Z,40.35
2018-08-03T08:36:27.273Z,40.09
2018-08-03T08:37:28.052Z,40.22
2018-08-03T08:38:28.826Z,40.56
2018-08-03T08:39:28.599Z,40.43
2018-08-03T08:40:30.399Z,40.68
2018-08-03T08:41:31.177Z,41.06
2018-08-03T08:42:31.958Z,40.78
2018-08-03T08:43:32.848Z,40.84
2018-08-03T08:44:32.503Z,41.01
2018-08-03T08:45:34.299Z,41.08
2018-08-03T08:46:35.077Z,41.08
2018-08-03T08:47:35.848Z,41.35
2018-08-03T08:48:36.671Z,41.60
2018-08-03T08:49:38.445Z,42.23
2018-08-03T08:50:38.240Z,42.25
2018-08-03T08:51:39.014Z,41.92
2018-08-03T08:52:39.807Z,41.63
2018-08-03T08:53:40.561Z,41.94
2018-08-03T08:54:41.366Z,41.62
2018-08-03T08:55:42.134Z,41.36
2018-08-03T08:56:42.905Z,41.60
2018-08-03T08:57:43.682Z,40.95
2018-08-03T08:58:44.466Z,41.41
2018-08-03T08:59:45.323Z,41.88
2018-08-03T09:00:45.041Z,40.77
2018-08-03T09:01:47.172Z,41.18
2018-08-03T09:02:49.936Z,41.09
2018-08-03T09:03:59.721Z,41.38
2018-08-03T09:05:00.496Z,41.37
2018-08-03T09:06:01.291Z,41.66
2018-08-03T09:07:02.065Z,41.33
2018-08-03T09:08:02.835Z,41.38
2018-08-03T09:09:03.606Z,42.23
2018-08-03T09:10:04.386Z,41.33
2018-08-03T09:11:05.190Z,41.69
2018-08-03T09:12:05.954Z,41.58
2018-08-03T09:13:06.726Z,41.92
2018-08-03T09:14:06.494Z,42.08
2018-08-03T09:15:08.269Z,42.20
2018-08-03T09:16:09.066Z,42.15
2018-08-03T09:17:09.841Z,42.73
2018-08-03T09:18:10.619Z,42.97
2018-08-03T09:19:11.393Z,42.92
2018-08-03T09:20:12.167Z,42.19
2018-08-03T09:21:12.962Z,42.16
2018-08-03T09:22:13.839Z,42.03
2018-08-03T09:23:13.520Z,42.14
2018-08-03T09:24:15.296Z,41.67
2018-08-03T09:25:16.069Z,41.21
2018-08-03T09:26:16.869Z,40.38
2018-08-03T09:27:17.644Z,40.56
2018-08-03T09:28:18.454Z,40.81
2018-08-03T09:29:18.197Z,40.79
2018-08-03T09:30:19.971Z,41.02
2018-08-03T09:31:20.768Z,41.44
2018-08-03T09:32:21.544Z,40.99
2018-08-03T09:33:22.312Z,41.21
2018-08-03T09:34:23.082Z,40.62
2018-08-03T09:35:23.855Z,40.27
2018-08-03T09:36:24.659Z,40.08
2018-08-03T09:37:25.437Z,40.02
2018-08-03T09:38:26.196Z,39.97
2018-08-03T09:39:26.986Z,39.98
2018-08-03T09:40:27.744Z,39.75
2018-08-03T09:41:28.544Z,39.35
2018-08-03T09:42:29.318Z,39.77
2018-08-03T09:43:30.091Z,39.62
2018-08-03T09:44:30.875Z,39.86
2018-08-03T09:45:31.639Z,39.94
2018-08-03T09:46:32.442Z,39.63
2018-08-03T09:47:33.216Z,39.80
2018-08-03T09:48:33.990Z,39.28
2018-08-03T09:49:34.764Z,39.14
2018-08-03T09:50:35.553Z,39.32
2018-08-03T09:51:36.346Z,39.93
2018-08-03T09:52:37.119Z,39.68
2018-08-03T09:53:37.895Z,39.08
2018-08-03T09:54:38.665Z,38.26
2018-08-03T09:55:39.448Z,39.04
2018-08-03T09:56:40.277Z,39.29
2018-08-03T09:57:41.048Z,39.15
2018-08-03T09:58:41.822Z,39.28
2018-08-03T09:59:42.590Z,39.21
2018-08-03T10:00:43.371Z,39.25
2018-08-03T10:01:44.193Z,39.07
2018-08-03T10:02:43.942Z,37.90
2018-08-03T10:03:45.713Z,38.43
2018-08-03T10:04:46.485Z,37.74
2018-08-03T10:05:47.262Z,38.10
2018-08-03T10:06:48.142Z,38.36
2018-08-03T10:07:47.843Z,38.26
2018-08-03T10:08:49.614Z,37.88
2018-08-03T10:09:50.384Z,37.65
2018-08-03T10:10:51.161Z,37.87
2018-08-03T10:11:51.955Z,37.96
2018-08-03T10:12:52.798Z,37.62
2018-08-03T10:13:52.499Z,37.10
2018-08-03T10:14:54.272Z,36.91
2018-08-03T10:15:55.046Z,36.99
2018-08-03T10:16:55.844Z,38.10
2018-08-03T10:17:56.616Z,37.13
2018-08-03T10:18:57.391Z,36.98
2018-08-03T10:19:58.161Z,36.95
2018-08-03T10:20:58.933Z,36.06
2018-08-03T10:21:59.736Z,35.88
2018-08-03T10:23:00.508Z,37.00
2018-08-03T10:24:01.285Z,35.50
2018-08-03T10:25:02.052Z,35.84
2018-08-03T10:26:02.833Z,36.44
2018-08-03T10:27:03.623Z,36.97
2018-08-03T10:28:04.408Z,37.59
2018-08-03T10:29:05.170Z,37.16
2018-08-03T10:30:05.942Z,37.08
2018-08-03T10:31:06.716Z,37.29
2018-08-03T10:32:07.521Z,36.64
2018-08-03T10:33:08.299Z,36.43
2018-08-03T10:34:09.064Z,36.18
2018-08-03T10:35:09.892Z,35.87
2018-08-03T10:36:09.620Z,35.55
2018-08-03T10:37:11.417Z,35.53
2018-08-03T10:38:12.194Z,35.30
2018-08-03T10:39:12.966Z,34.64
2018-08-03T10:40:13.744Z,34.21
2018-08-03T10:41:14.520Z,34.32
2018-08-03T10:42:15.318Z,33.80
2018-08-03T10:43:16.235Z,33.95
2018-08-03T10:44:15.865Z,34.07
2018-08-03T10:45:17.647Z,33.49
2018-08-03T10:46:18.415Z,33.94
2018-08-03T10:47:19.220Z,33.46
2018-08-03T10:48:19.989Z,33.31
2018-08-03T10:49:20.772Z,33.27
2018-08-03T10:50:21.543Z,32.49
2018-08-03T10:51:22.373Z,32.92
2018-08-03T10:52:22.126Z,32.82
2018-08-03T10:53:23.896Z,33.25
2018-08-03T10:54:24.671Z,32.98
2018-08-03T10:55:25.443Z,32.90
2018-08-03T10:56:26.219Z,32.37
2018-08-03T10:57:27.012Z,32.79
2018-08-03T10:58:29.166Z,32.74
2018-08-03T11:03:32.890Z,32.41
2018-08-03T11:04:33.665Z,32.44
2018-08-03T11:05:34.432Z,32.82
2018-08-03T11:06:35.202Z,32.70
2018-08-03T11:07:35.975Z,32.49
2018-08-03T11:08:36.777Z,32.44
2018-08-03T11:09:37.543Z,32.06
2018-08-03T11:10:38.325Z,32.53
2018-08-03T11:11:39.101Z,32.62
2018-08-03T11:12:39.873Z,32.78
2018-08-03T11:13:40.699Z,32.45
2018-08-03T11:14:40.441Z,32.78
2018-08-03T11:15:42.212Z,33.48
2018-08-03T11:16:42.988Z,32.99
2018-08-03T11:17:43.763Z,32.87
2018-08-03T11:18:44.567Z,32.91
2018-08-03T11:19:45.336Z,32.57
2018-08-03T11:20:46.103Z,33.19
2018-08-03T11:21:46.874Z,33.07
2018-08-03T11:22:47.647Z,32.62
2018-08-03T11:23:48.447Z,32.68
2018-08-03T11:24:49.219Z,32.27
2018-08-03T11:25:49.997Z,31.70
2018-08-03T11:26:50.771Z,31.82
2018-08-03T11:27:50.554Z,31.97
2018-08-03T11:28:52.351Z,31.76
2018-08-03T11:29:53.125Z,31.81
2018-08-03T11:30:53.896Z,32.43
2018-08-03T11:31:54.670Z,32.19
2018-08-03T11:32:55.440Z,32.04
2018-08-03T11:33:56.246Z,32.39
2018-08-03T11:34:57.022Z,30.57
2018-08-03T11:35:57.802Z,30.91
2018-08-03T11:36:58.576Z,31.33
2018-08-03T11:37:59.363Z,32.01
2018-08-03T11:39:00.156Z,32.13
2018-08-03T11:40:00.944Z,31.98
2018-08-03T11:41:01.703Z,32.32
2018-08-03T11:42:02.480Z,31.98
2018-08-03T11:43:03.270Z,32.30
2018-08-03T11:44:03.052Z,32.14
2018-08-03T11:45:04.825Z,31.60
2018-08-03T11:46:05.604Z,31.49
2018-08-03T11:47:06.374Z,31.37
2018-08-03T11:48:07.150Z,31.63
2018-08-03T11:49:07.948Z,31.43
2018-08-03T11:50:08.722Z,30.90
2018-08-03T11:51:09.493Z,30.87
2018-08-03T11:52:10.271Z,29.96
2018-08-03T11:53:10.051Z,30.47
2018-08-03T11:54:11.847Z,30.67
2018-08-03T11:55:12.621Z,31.10
2018-08-03T11:56:13.396Z,31.36
2018-08-03T11:57:14.171Z,30.71
2018-08-03T11:58:14.946Z,30.26
2018-08-03T11:59:15.751Z,30.67
2018-08-03T12:00:16.525Z,31.05
2018-08-03T12:01:17.303Z,30.91
2018-08-03T12:02:18.074Z,30.56
2018-08-03T12:03:18.846Z,30.19
2018-08-03T12:04:19.648Z,30.57
2018-08-03T12:05:20.421Z,30.85
2018-08-03T12:06:21.237Z,30.86
2018-08-03T12:07:20.970Z,30.97
2018-08-03T12:08:22.747Z,31.00
2018-08-03T12:09:23.554Z,30.46
2018-08-03T12:10:24.324Z,30.96
2018-08-03T12:11:25.099Z,30.44
2018-08-03T12:12:25.921Z,30.39
2018-08-03T12:13:25.653Z,29.85
2018-08-03T12:14:27.446Z,30.34
2018-08-03T12:15:28.222Z,30.95
2018-08-03T12:16:28.996Z,30.93
2018-08-03T12:17:29.776Z,31.05
2018-08-03T12:18:30.546Z,30.52
2018-08-03T12:19:31.351Z,30.34
2018-08-03T12:20:32.124Z,30.00
2018-08-03T12:21:32.900Z,30.31
2018-08-03T12:22:33.670Z,28.74
2018-08-03T12:23:34.513Z,28.60
2018-08-03T12:24:34.248Z,29.08
2018-08-03T12:25:36.021Z,29.99
2018-08-03T12:26:36.799Z,30.10
2018-08-03T12:27:37.570Z,28.81
2018-08-03T12:28:38.351Z,29.27
2018-08-03T12:29:39.147Z,29.60
2018-08-03T12:30:39.920Z,29.97
2018-08-03T12:31:40.779Z,30.19
2018-08-03T12:32:40.467Z,29.70
2018-08-03T12:33:42.239Z,29.42
2018-08-03T12:34:43.040Z,29.04
2018-08-03T12:35:43.812Z,28.92
2018-08-03T12:36:44.590Z,29.29
2018-08-03T12:37:45.361Z,28.80
2018-08-03T12:38:46.222Z,28.69
2018-08-03T12:39:45.955Z,28.96
2018-08-03T12:40:47.737Z,28.90
2018-08-03T12:41:48.507Z,28.83
2018-08-03T12:42:49.272Z,28.64
2018-08-03T12:43:50.044Z,28.67
2018-08-03T12:44:50.850Z,28.72
2018-08-03T12:45:51.636Z,28.33
2018-08-03T12:46:51.395Z,28.49
2018-08-03T12:47:53.166Z,27.69
2018-08-03T12:48:53.941Z,27.96
2018-08-03T12:49:54.740Z,27.65
2018-08-03T12:50:55.522Z,27.75
2018-08-03T12:51:56.294Z,28.52
2018-08-03T12:52:57.094Z,28.39
2018-08-03T12:53:57.841Z,27.37
2018-08-03T12:54:58.646Z,27.47
2018-08-03T12:55:59.422Z,27.58
2018-08-03T12:57:00.197Z,27.06
2018-08-03T12:58:00.973Z,27.09
2018-08-03T12:59:02.119Z,27.07
2018-08-03T13:00:03.391Z,27.12
2018-08-03T13:01:01.579Z,27.00
2018-08-03T13:06:04.091Z,27.37
2018-08-03T13:07:04.925Z,27.31
2018-08-03T13:08:04.842Z,27.71
2018-08-03T13:09:05.406Z,26.86
2018-08-03T13:10:07.183Z,27.01
2018-08-03T13:11:07.974Z,27.24
2018-08-03T13:12:08.750Z,27.50
2018-08-03T13:13:09.586Z,27.14
2018-08-03T13:14:09.296Z,27.25
2018-08-03T13:15:11.090Z,27.67
2018-08-03T13:16:11.861Z,27.92
2018-08-03T13:17:12.638Z,28.19
2018-08-03T13:18:13.413Z,28.09
2018-08-03T13:19:14.179Z,27.49
2018-08-03T13:20:14.973Z,26.49
2018-08-03T13:21:15.764Z,26.04
2018-08-03T13:22:16.521Z,26.62
2018-08-03T13:23:16.292Z,27.12